Penasco, New Mexico
Current Conditions -  °F | °C
As of 7:15 PM on Saturday 25 Oct 2014 (Local Time) from KSKX Reporting Station
Clear Clear  
Wind Chill: 59°   Ceiling: Unl
Heat Index: 59°   Visibility: 10mi
Dew Point: 19°   Wind: 7mph
Humidity: 22%   Direction: 230°SW
Pressure: 30.26"   Gusts: NA
Location:  36.17°N, 105.69°W
Report Text: KSKX 260115Z AUTO 23006KT 10SM CLR 15/M07 A3026 RMK AO1
Loading
Personal Weather Stations






























Interactive Weather Map
Tropical Storm Tracking
New forecast layout! Learn more

10-Day Weather Forecast

Advertisements
Track Severe Weather on mobile